FAGGFAEL

Guest
Details From FAGG - George
To FAEL - East London
Flight Number -
Tags generated
Created
Modified
Stats Distance 279 nm / 516 km
Max Altitude 29,000 ft / 8,839 m
Waypoints 4
Social Downloads 1
Likes 0
Share VATSIM

Download

Looking for another format? Having issues loading an existing format? Contact us
Advertisement - Login to hide

Notes

Basic altitude profile: - Ascent Rate: 2500ft/min - Ascent Speed: 250kts - Cruise Altitude: 35000ft - Cruise Speed: 420kts - Descent Rate: 1500ft/min - Descent Speed: 250kts Options: - Use NATs: yes - Use PACOTS: yes - Use low airways: no - Use high airways: yes

Route

FAGG GENOL UZ13 EPSID FAEL

ID Type Via Altitude Latitude Longitude Leg Dist Tot Dist Heading (true) Name
O FAGG APT - 0 ft / 0 m -34.00553˚ 22.37851˚ - 0 nm - George
GENOL FIX - 29,000 ft / 8,839 m -33.73993˚ 24.03351˚ 84 nm 84 nm 80° / 79° -
EPSID FIX UZ13 (AWY-HI) 21,600 ft / 6,584 m -33.43232˚ 25.77681˚ 89 nm 173 nm 79° / 78° -
O FAEL APT - 0 ft / 0 m -33.03616˚ 27.82374˚ 105 nm 278 nm 78° / 76° East London

Altitude Profile

Advertisement - Login to hide

Weather


0- 5 10 15 20 25 30 35+ Temperature / ° C

Clouds and Precipitation
Forecast for 2017-12-12 12:00 UTC. Updated an hour ago

Ground ~20,000 ft ~40,000 ft Winds

FAGG

Details ICAO FAGG (GRJ)
Name George
Region South Africa
Timezone Africa/Johannesburg (UTC+2.0)
Stats Elevation 648 ft / 198 m (AMSL)
Location -34.005531° 22.378515°
Runways 1
Magnetic Variation 26.975° W

METAR

FAGG 121200Z 18011KT 140V210 9999 FEW045 20/10 Q1014

Decode

TAF

Not found

Departure Runways

ID Width Length Bearing (true) Bearing (mag) Surface Threshold Offset Overrun Length
11 148 ft / 45 m 6,568 ft / 2,002 m 87.84° 114.81° Asphalt 0 ft / 0 m 197 ft / 60 m
29 148 ft / 45 m 6,568 ft / 2,002 m 267.82° 294.79° Asphalt 0 ft / 0 m 196 ft / 60 m

FAEL

Details ICAO FAEL (ELS)
Name East London
Region South Africa
Timezone Africa/Johannesburg (UTC+2.0)
Stats Elevation 435 ft / 133 m (AMSL)
Location -33.036159° 27.823743°
Runways 2
Magnetic Variation 28.453° W

METAR

FAEL 121100Z 19012KT CAVOK 22/15 Q1013

Decode

TAF

Not found

Destination Runways

ID Width Length Bearing (true) Bearing (mag) Surface Threshold Offset Overrun Length
06 150 ft / 46 m 5,217 ft / 1,590 m 36.65° 65.10° Asphalt 0 ft / 0 m 0 ft / 0 m
11 150 ft / 46 m 6,354 ft / 1,937 m 81.77° 110.22° Asphalt 0 ft / 0 m 0 ft / 0 m
24 150 ft / 46 m 5,217 ft / 1,590 m 216.65° 245.10° Asphalt 0 ft / 0 m 0 ft / 0 m
29 150 ft / 46 m 6,354 ft / 1,937 m 261.75° 290.20° Asphalt 0 ft / 0 m 0 ft / 0 m

Approach Navaids

Runway Type Ident Frequency Range Bearing (true) Bearing (mag) Slope Elevation
11 Localiser BSI 110.90 MHz 18 nm / 33 km 81.81° 110.26° - 436 ft / 133 m (AMSL)
11 Glidescope BSI 110.90 MHz 10 nm / 19 km 81.76° 110.21° 2.70° 435 ft / 133 m (AMSL)
29 Localiser ELI 109.90 MHz 18 nm / 33 km 261.77° 290.23° - 436 ft / 133 m (AMSL)
29 Glidescope ELI 109.90 MHz 10 nm / 19 km 261.76° 290.21° 3.00° 435 ft / 133 m (AMSL)